Huvudsida
METAR-TAF:

METAR-TAF

Flygplatser :

Montichiari

Brescia, Italien

latitud: 45-24-02N, longitud: 010-18-59E, höjd: 104 m

Aktuellt väderrapport

Denna rapport gjordes för 26 minuter sedan, klockan 18:50 UTC
Vind 4 kt från nordost
Temperatur 8°C
Fuktighet 27%
Tryck 1019 hPa
Sikt 10 km eller mer
Inga moln under 1 500 m eller inga cumulonimbus

METAR: LIPO 281850Z 04004KT CAVOK 08/M10 Q1019

Tid: 20:16 (19:16 UTC)

Väderprognos

Denna rapport gjordes för 2 timmar och 16 minuter sedan, klockan 17:00 UTC
Prognos gäller från 28 kl. 18 UTC till 29 kl. 18 UTC
Vind 5 kt varierande vindriktning
Sikt 10 km eller mer
Inga moln under 1 500 m eller inga cumulonimbus
Blir
från 29 kl. 14 UTC till 29 kl. 16 UTC
Brutna moln på en höjd av 3000 ft
regn

TAF: LIPO 281700Z 2818/2918 VRB05KT CAVOK BECMG 2914/2916 RA BKN030

Aktuella väderrapporter och prognoser från 4000 flygplatser (METAR- och TAF-rapporter).

De tillgängliga stationerna syns som gula och röda prickar på kartan.

För musen över prickarna för att se namnen på stationerna.

Klicka sedan för att få väderrapporter och prognoser.

För att ändra kartan: Klicka på de gröna knapparna med ett svart kors på för att zooma in; den gröna knappen med ett streck på för att zooma ut; eller på de gröna pilarna för angränsande kartor.


METAR-TAF: